sensor_id;sensor_type;location;lat;lon;timestamp;P1;durP1;ratioP1;P2;durP2;ratioP2
73266;SDS011;61495;53.400;7.608;2024-02-16T00:03:09;9.30;;;3.97;;
73266;SDS011;61495;53.400;7.608;2024-02-16T00:06:33;8.57;;;4.28;;
73266;SDS011;61495;53.400;7.608;2024-02-16T00:10:15;6.78;;;4.00;;
73266;SDS011;61495;53.400;7.608;2024-02-16T00:13:39;7.60;;;4.35;;
73266;SDS011;61495;53.400;7.608;2024-02-16T00:17:03;8.50;;;3.67;;
73266;SDS011;61495;53.400;7.608;2024-02-16T00:20:28;8.52;;;4.57;;
73266;SDS011;61495;53.400;7.608;2024-02-16T00:23:52;7.63;;;3.80;;
73266;SDS011;61495;53.400;7.608;2024-02-16T00:27:16;6.97;;;4.35;;
73266;SDS011;61495;53.400;7.608;2024-02-16T00:30:40;9.02;;;3.53;;
73266;SDS011;61495;53.400;7.608;2024-02-16T00:34:04;7.70;;;3.80;;
73266;SDS011;61495;53.400;7.608;2024-02-16T00:37:28;7.07;;;3.58;;
73266;SDS011;61495;53.400;7.608;2024-02-16T00:40:55;9.07;;;4.20;;
73266;SDS011;61495;53.400;7.608;2024-02-16T00:44:20;6.70;;;4.13;;
73266;SDS011;61495;53.400;7.608;2024-02-16T00:47:44;8.75;;;3.95;;
73266;SDS011;61495;53.400;7.608;2024-02-16T00:51:08;7.95;;;4.25;;
73266;SDS011;61495;53.400;7.608;2024-02-16T00:54:32;7.70;;;3.75;;
73266;SDS011;61495;53.400;7.608;2024-02-16T00:57:56;9.95;;;4.78;;
73266;SDS011;61495;53.400;7.608;2024-02-16T01:01:20;9.07;;;4.50;;
73266;SDS011;61495;53.400;7.608;2024-02-16T01:04:47;8.95;;;4.57;;
73266;SDS011;61495;53.400;7.608;2024-02-16T01:08:11;7.80;;;4.18;;
73266;SDS011;61495;53.400;7.608;2024-02-16T01:11:42;8.93;;;4.20;;
73266;SDS011;61495;53.400;7.608;2024-02-16T01:15:06;9.05;;;3.78;;
73266;SDS011;61495;53.400;7.608;2024-02-16T01:18:31;8.40;;;4.00;;
73266;SDS011;61495;53.400;7.608;2024-02-16T01:21:55;8.15;;;3.83;;
73266;SDS011;61495;53.400;7.608;2024-02-16T01:25:19;7.65;;;4.35;;
73266;SDS011;61495;53.400;7.608;2024-02-16T01:28:43;10.75;;;3.70;;
73266;SDS011;61495;53.400;7.608;2024-02-16T01:32:06;8.48;;;4.22;;
73266;SDS011;61495;53.400;7.608;2024-02-16T01:35:34;7.13;;;3.90;;
73266;SDS011;61495;53.400;7.608;2024-02-16T01:38:58;10.18;;;5.10;;
73266;SDS011;61495;53.400;7.608;2024-02-16T01:42:26;7.35;;;3.38;;
73266;SDS011;61495;53.400;7.608;2024-02-16T01:45:49;9.90;;;4.60;;
73266;SDS011;61495;53.400;7.608;2024-02-16T01:49:13;7.65;;;4.13;;
73266;SDS011;61495;53.400;7.608;2024-02-16T01:52:39;7.93;;;4.30;;
73266;SDS011;61495;53.400;7.608;2024-02-16T01:56:04;7.10;;;4.25;;
73266;SDS011;61495;53.400;7.608;2024-02-16T01:59:30;7.82;;;3.70;;
73266;SDS011;61495;53.400;7.608;2024-02-16T02:02:54;7.30;;;3.70;;
73266;SDS011;61495;53.400;7.608;2024-02-16T02:06:18;7.57;;;4.82;;
73266;SDS011;61495;53.400;7.608;2024-02-16T02:09:45;6.65;;;4.32;;
73266;SDS011;61495;53.400;7.608;2024-02-16T02:13:09;8.98;;;4.45;;
73266;SDS011;61495;53.400;7.608;2024-02-16T02:16:33;6.38;;;3.42;;
73266;SDS011;61495;53.400;7.608;2024-02-16T02:19:57;7.13;;;4.35;;
73266;SDS011;61495;53.400;7.608;2024-02-16T02:23:21;6.85;;;3.70;;
73266;SDS011;61495;53.400;7.608;2024-02-16T02:26:45;6.75;;;3.67;;
73266;SDS011;61495;53.400;7.608;2024-02-16T02:30:10;7.03;;;3.20;;
73266;SDS011;61495;53.400;7.608;2024-02-16T02:33:55;6.97;;;4.03;;
73266;SDS011;61495;53.400;7.608;2024-02-16T02:37:45;7.00;;;3.25;;
73266;SDS011;61495;53.400;7.608;2024-02-16T02:41:26;8.13;;;3.85;;
73266;SDS011;61495;53.400;7.608;2024-02-16T02:45:16;8.75;;;3.75;;
73266;SDS011;61495;53.400;7.608;2024-02-16T02:48:59;5.43;;;3.20;;
73266;SDS011;61495;53.400;7.608;2024-02-16T02:52:41;8.52;;;3.88;;
73266;SDS011;61495;53.400;7.608;2024-02-16T02:56:05;5.95;;;3.63;;
73266;SDS011;61495;53.400;7.608;2024-02-16T02:59:29;7.45;;;3.25;;
73266;SDS011;61495;53.400;7.608;2024-02-16T03:02:52;6.10;;;2.78;;
73266;SDS011;61495;53.400;7.608;2024-02-16T03:06:20;8.07;;;3.40;;
73266;SDS011;61495;53.400;7.608;2024-02-16T03:09:47;8.45;;;3.80;;
73266;SDS011;61495;53.400;7.608;2024-02-16T03:13:11;7.90;;;3.70;;
73266;SDS011;61495;53.400;7.608;2024-02-16T03:16:35;7.18;;;2.90;;
73266;SDS011;61495;53.400;7.608;2024-02-16T03:19:59;6.53;;;3.60;;
73266;SDS011;61495;53.400;7.608;2024-02-16T03:23:23;7.95;;;3.20;;
73266;SDS011;61495;53.400;7.608;2024-02-16T03:26:47;7.22;;;3.00;;
73266;SDS011;61495;53.400;7.608;2024-02-16T03:30:11;8.40;;;3.50;;
73266;SDS011;61495;53.400;7.608;2024-02-16T03:33:39;9.77;;;3.70;;
73266;SDS011;61495;53.400;7.608;2024-02-16T03:37:03;7.38;;;4.03;;
73266;SDS011;61495;53.400;7.608;2024-02-16T03:40:31;5.28;;;3.03;;
73266;SDS011;61495;53.400;7.608;2024-02-16T03:43:55;7.60;;;3.47;;
73266;SDS011;61495;53.400;7.608;2024-02-16T03:47:19;6.30;;;3.00;;
73266;SDS011;61495;53.400;7.608;2024-02-16T03:50:43;6.43;;;3.65;;
73266;SDS011;61495;53.400;7.608;2024-02-16T03:54:07;5.70;;;2.78;;
73266;SDS011;61495;53.400;7.608;2024-02-16T03:57:31;5.07;;;2.78;;
73266;SDS011;61495;53.400;7.608;2024-02-16T04:04:20;7.22;;;3.08;;
73266;SDS011;61495;53.400;7.608;2024-02-16T04:07:43;5.47;;;3.15;;
73266;SDS011;61495;53.400;7.608;2024-02-16T04:11:16;5.45;;;2.63;;
73266;SDS011;61495;53.400;7.608;2024-02-16T04:14:40;6.00;;;2.88;;
73266;SDS011;61495;53.400;7.608;2024-02-16T04:18:04;6.60;;;3.35;;
73266;SDS011;61495;53.400;7.608;2024-02-16T04:21:28;7.43;;;2.90;;
73266;SDS011;61495;53.400;7.608;2024-02-16T04:24:52;8.45;;;3.28;;
73266;SDS011;61495;53.400;7.608;2024-02-16T04:28:17;6.60;;;3.40;;
73266;SDS011;61495;53.400;7.608;2024-02-16T04:31:41;8.20;;;3.67;;
73266;SDS011;61495;53.400;7.608;2024-02-16T04:35:05;8.10;;;3.30;;
73266;SDS011;61495;53.400;7.608;2024-02-16T04:38:32;6.40;;;3.65;;
73266;SDS011;61495;53.400;7.608;2024-02-16T04:41:56;7.00;;;2.90;;
73266;SDS011;61495;53.400;7.608;2024-02-16T04:45:22;6.90;;;3.30;;
73266;SDS011;61495;53.400;7.608;2024-02-16T04:48:46;5.97;;;3.20;;
73266;SDS011;61495;53.400;7.608;2024-02-16T04:52:10;7.55;;;2.92;;
73266;SDS011;61495;53.400;7.608;2024-02-16T04:55:35;8.98;;;3.35;;
73266;SDS011;61495;53.400;7.608;2024-02-16T04:58:59;7.70;;;3.05;;
73266;SDS011;61495;53.400;7.608;2024-02-16T05:02:23;5.43;;;3.00;;
73266;SDS011;61495;53.400;7.608;2024-02-16T05:05:47;7.18;;;3.13;;
73266;SDS011;61495;53.400;7.608;2024-02-16T05:09:12;5.82;;;2.65;;
73266;SDS011;61495;53.400;7.608;2024-02-16T05:12:36;8.20;;;2.53;;
73266;SDS011;61495;53.400;7.608;2024-02-16T05:16:00;5.43;;;2.63;;
73266;SDS011;61495;53.400;7.608;2024-02-16T05:19:24;6.55;;;2.70;;
73266;SDS011;61495;53.400;7.608;2024-02-16T05:22:48;6.88;;;3.03;;
73266;SDS011;61495;53.400;7.608;2024-02-16T05:26:13;5.20;;;3.10;;
73266;SDS011;61495;53.400;7.608;2024-02-16T05:29:38;10.00;;;3.13;;
73266;SDS011;61495;53.400;7.608;2024-02-16T05:36:26;5.38;;;2.45;;
73266;SDS011;61495;53.400;7.608;2024-02-16T05:39:53;7.82;;;3.08;;
73266;SDS011;61495;53.400;7.608;2024-02-16T05:46:45;5.65;;;2.83;;
73266;SDS011;61495;53.400;7.608;2024-02-16T05:50:13;8.13;;;3.38;;
73266;SDS011;61495;53.400;7.608;2024-02-16T05:53:39;15.30;;;3.08;;
73266;SDS011;61495;53.400;7.608;2024-02-16T05:57:03;5.70;;;2.53;;
73266;SDS011;61495;53.400;7.608;2024-02-16T06:00:30;7.50;;;3.33;;
73266;SDS011;61495;53.400;7.608;2024-02-16T06:03:54;11.82;;;3.42;;
73266;SDS011;61495;53.400;7.608;2024-02-16T06:07:18;7.03;;;2.80;;
73266;SDS011;61495;53.400;7.608;2024-02-16T06:10:44;5.78;;;3.10;;
73266;SDS011;61495;53.400;7.608;2024-02-16T06:14:08;5.57;;;2.60;;
73266;SDS011;61495;53.400;7.608;2024-02-16T06:17:32;6.07;;;2.65;;
73266;SDS011;61495;53.400;7.608;2024-02-16T06:20:56;6.15;;;2.75;;
73266;SDS011;61495;53.400;7.608;2024-02-16T06:24:21;5.38;;;3.08;;
73266;SDS011;61495;53.400;7.608;2024-02-16T06:27:46;5.65;;;3.25;;
73266;SDS011;61495;53.400;7.608;2024-02-16T06:31:12;4.50;;;2.40;;
73266;SDS011;61495;53.400;7.608;2024-02-16T06:34:37;7.00;;;2.38;;
73266;SDS011;61495;53.400;7.608;2024-02-16T06:38:01;8.20;;;3.15;;
73266;SDS011;61495;53.400;7.608;2024-02-16T06:41:25;5.68;;;2.40;;
73266;SDS011;61495;53.400;7.608;2024-02-16T06:44:49;6.43;;;2.70;;
73266;SDS011;61495;53.400;7.608;2024-02-16T06:48:13;7.82;;;3.17;;
73266;SDS011;61495;53.400;7.608;2024-02-16T06:51:37;7.25;;;2.85;;
73266;SDS011;61495;53.400;7.608;2024-02-16T06:55:01;5.13;;;3.25;;
73266;SDS011;61495;53.400;7.608;2024-02-16T06:58:25;5.00;;;2.90;;
73266;SDS011;61495;53.400;7.608;2024-02-16T07:01:49;5.90;;;3.15;;
73266;SDS011;61495;53.400;7.608;2024-02-16T07:05:13;5.40;;;2.95;;
73266;SDS011;61495;53.400;7.608;2024-02-16T07:08:40;6.97;;;3.05;;
73266;SDS011;61495;53.400;7.608;2024-02-16T07:12:10;4.97;;;2.72;;
73266;SDS011;61495;53.400;7.608;2024-02-16T07:15:34;6.43;;;3.08;;
73266;SDS011;61495;53.400;7.608;2024-02-16T07:22:23;5.82;;;3.00;;
73266;SDS011;61495;53.400;7.608;2024-02-16T07:25:47;5.60;;;2.75;;
73266;SDS011;61495;53.400;7.608;2024-02-16T07:29:11;5.80;;;2.88;;
73266;SDS011;61495;53.400;7.608;2024-02-16T07:32:38;8.45;;;3.00;;
73266;SDS011;61495;53.400;7.608;2024-02-16T07:36:02;7.03;;;3.63;;
73266;SDS011;61495;53.400;7.608;2024-02-16T07:39:35;8.63;;;2.75;;
73266;SDS011;61495;53.400;7.608;2024-02-16T07:42:59;7.60;;;2.88;;
73266;SDS011;61495;53.400;7.608;2024-02-16T07:46:24;5.72;;;2.70;;
73266;SDS011;61495;53.400;7.608;2024-02-16T07:49:48;4.95;;;2.70;;
73266;SDS011;61495;53.400;7.608;2024-02-16T07:53:12;7.78;;;2.83;;
73266;SDS011;61495;53.400;7.608;2024-02-16T07:56:36;5.57;;;2.88;;
73266;SDS011;61495;53.400;7.608;2024-02-16T08:00:02;6.55;;;2.50;;
73266;SDS011;61495;53.400;7.608;2024-02-16T08:03:26;6.88;;;3.25;;
73266;SDS011;61495;53.400;7.608;2024-02-16T08:06:50;7.40;;;2.78;;
73266;SDS011;61495;53.400;7.608;2024-02-16T08:10:14;6.28;;;3.00;;
73266;SDS011;61495;53.400;7.608;2024-02-16T08:13:38;5.65;;;2.60;;
73266;SDS011;61495;53.400;7.608;2024-02-16T08:17:09;6.15;;;3.30;;
73266;SDS011;61495;53.400;7.608;2024-02-16T08:20:33;6.70;;;2.60;;
73266;SDS011;61495;53.400;7.608;2024-02-16T08:23:57;6.93;;;2.85;;
73266;SDS011;61495;53.400;7.608;2024-02-16T08:27:21;4.45;;;2.13;;
73266;SDS011;61495;53.400;7.608;2024-02-16T08:30:45;6.10;;;2.40;;
73266;SDS011;61495;53.400;7.608;2024-02-16T08:34:09;6.75;;;2.55;;
73266;SDS011;61495;53.400;7.608;2024-02-16T08:37:34;4.70;;;2.17;;
73266;SDS011;61495;53.400;7.608;2024-02-16T08:41:14;6.63;;;3.15;;
73266;SDS011;61495;53.400;7.608;2024-02-16T08:44:47;5.47;;;2.95;;
73266;SDS011;61495;53.400;7.608;2024-02-16T08:48:13;8.73;;;3.53;;
73266;SDS011;61495;53.400;7.608;2024-02-16T08:51:37;5.85;;;2.60;;
73266;SDS011;61495;53.400;7.608;2024-02-16T08:55:01;5.60;;;2.55;;
73266;SDS011;61495;53.400;7.608;2024-02-16T08:58:25;5.28;;;2.83;;
73266;SDS011;61495;53.400;7.608;2024-02-16T09:01:49;6.35;;;3.15;;
73266;SDS011;61495;53.400;7.608;2024-02-16T09:05:14;6.35;;;3.35;;
73266;SDS011;61495;53.400;7.608;2024-02-16T09:08:38;6.18;;;2.95;;
73266;SDS011;61495;53.400;7.608;2024-02-16T09:12:05;7.85;;;3.28;;
73266;SDS011;61495;53.400;7.608;2024-02-16T09:15:29;6.78;;;2.97;;
73266;SDS011;61495;53.400;7.608;2024-02-16T09:18:53;9.15;;;2.78;;
73266;SDS011;61495;53.400;7.608;2024-02-16T09:22:17;4.43;;;2.45;;
73266;SDS011;61495;53.400;7.608;2024-02-16T09:25:41;5.85;;;2.40;;
73266;SDS011;61495;53.400;7.608;2024-02-16T09:29:05;6.35;;;2.85;;
73266;SDS011;61495;53.400;7.608;2024-02-16T09:32:29;7.70;;;2.70;;
73266;SDS011;61495;53.400;7.608;2024-02-16T09:35:53;6.43;;;2.60;;
73266;SDS011;61495;53.400;7.608;2024-02-16T09:39:26;6.65;;;3.30;;
73266;SDS011;61495;53.400;7.608;2024-02-16T09:42:51;6.93;;;3.03;;
73266;SDS011;61495;53.400;7.608;2024-02-16T09:46:18;8.50;;;3.05;;
73266;SDS011;61495;53.400;7.608;2024-02-16T09:49:45;5.88;;;3.28;;
73266;SDS011;61495;53.400;7.608;2024-02-16T09:53:10;7.45;;;3.17;;
73266;SDS011;61495;53.400;7.608;2024-02-16T09:56:34;7.28;;;2.50;;
73266;SDS011;61495;53.400;7.608;2024-02-16T09:59:58;5.25;;;2.40;;
73266;SDS011;61495;53.400;7.608;2024-02-16T10:03:26;6.03;;;3.30;;
73266;SDS011;61495;53.400;7.608;2024-02-16T10:06:50;6.25;;;3.20;;
73266;SDS011;61495;53.400;7.608;2024-02-16T10:10:27;7.88;;;3.33;;
73266;SDS011;61495;53.400;7.608;2024-02-16T10:17:20;7.25;;;3.13;;
73266;SDS011;61495;53.400;7.608;2024-02-16T10:20:44;5.38;;;3.00;;
73266;SDS011;61495;53.400;7.608;2024-02-16T10:24:09;6.15;;;3.35;;
73266;SDS011;61495;53.400;7.608;2024-02-16T10:27:36;6.40;;;3.08;;
73266;SDS011;61495;53.400;7.608;2024-02-16T10:31:00;7.28;;;2.95;;
73266;SDS011;61495;53.400;7.608;2024-02-16T10:34:24;6.40;;;2.92;;
73266;SDS011;61495;53.400;7.608;2024-02-16T10:37:49;6.68;;;3.00;;
73266;SDS011;61495;53.400;7.608;2024-02-16T10:41:20;7.35;;;3.97;;
73266;SDS011;61495;53.400;7.608;2024-02-16T10:44:45;10.13;;;3.38;;
73266;SDS011;61495;53.400;7.608;2024-02-16T10:48:17;8.48;;;4.10;;
73266;SDS011;61495;53.400;7.608;2024-02-16T10:55:09;6.18;;;2.40;;
73266;SDS011;61495;53.400;7.608;2024-02-16T10:58:33;6.65;;;3.60;;
73266;SDS011;61495;53.400;7.608;2024-02-16T11:02:11;5.28;;;2.80;;
73266;SDS011;61495;53.400;7.608;2024-02-16T11:05:41;9.35;;;3.60;;
73266;SDS011;61495;53.400;7.608;2024-02-16T11:12:52;6.28;;;3.33;;
73266;SDS011;61495;53.400;7.608;2024-02-16T11:16:24;7.97;;;3.45;;
73266;SDS011;61495;53.400;7.608;2024-02-16T11:19:49;6.03;;;3.33;;
73266;SDS011;61495;53.400;7.608;2024-02-16T11:23:13;10.15;;;3.60;;
73266;SDS011;61495;53.400;7.608;2024-02-16T11:26:42;6.60;;;3.33;;
73266;SDS011;61495;53.400;7.608;2024-02-16T11:30:06;6.55;;;4.05;;
73266;SDS011;61495;53.400;7.608;2024-02-16T11:33:34;8.25;;;4.15;;
73266;SDS011;61495;53.400;7.608;2024-02-16T11:36:59;7.85;;;4.22;;
73266;SDS011;61495;53.400;7.608;2024-02-16T11:40:29;9.07;;;3.90;;
73266;SDS011;61495;53.400;7.608;2024-02-16T11:43:58;9.32;;;4.38;;
73266;SDS011;61495;53.400;7.608;2024-02-16T11:47:23;6.53;;;4.00;;
73266;SDS011;61495;53.400;7.608;2024-02-16T11:50:49;8.68;;;4.20;;
73266;SDS011;61495;53.400;7.608;2024-02-16T11:54:13;5.95;;;3.35;;
73266;SDS011;61495;53.400;7.608;2024-02-16T11:57:40;9.27;;;4.38;;
73266;SDS011;61495;53.400;7.608;2024-02-16T12:01:04;6.25;;;4.05;;
73266;SDS011;61495;53.400;7.608;2024-02-16T12:04:43;8.85;;;4.32;;
73266;SDS011;61495;53.400;7.608;2024-02-16T12:11:44;9.65;;;4.45;;
73266;SDS011;61495;53.400;7.608;2024-02-16T12:15:08;8.68;;;5.05;;
73266;SDS011;61495;53.400;7.608;2024-02-16T12:18:34;8.32;;;4.25;;
73266;SDS011;61495;53.400;7.608;2024-02-16T12:21:57;6.78;;;4.30;;
73266;SDS011;61495;53.400;7.608;2024-02-16T12:25:22;8.77;;;5.30;;
73266;SDS011;61495;53.400;7.608;2024-02-16T12:28:46;9.13;;;4.82;;
73266;SDS011;61495;53.400;7.608;2024-02-16T12:35:35;11.57;;;6.10;;
73266;SDS011;61495;53.400;7.608;2024-02-16T12:38:59;9.60;;;5.50;;
73266;SDS011;61495;53.400;7.608;2024-02-16T12:42:31;9.93;;;6.43;;
73266;SDS011;61495;53.400;7.608;2024-02-16T12:45:55;14.10;;;7.38;;
73266;SDS011;61495;53.400;7.608;2024-02-16T12:49:19;10.60;;;7.07;;
73266;SDS011;61495;53.400;7.608;2024-02-16T12:52:43;12.88;;;8.88;;
73266;SDS011;61495;53.400;7.608;2024-02-16T12:56:07;14.30;;;7.82;;
73266;SDS011;61495;53.400;7.608;2024-02-16T12:59:37;12.88;;;7.70;;
73266;SDS011;61495;53.400;7.608;2024-02-16T13:03:00;13.23;;;6.40;;
73266;SDS011;61495;53.400;7.608;2024-02-16T13:06:25;10.55;;;6.35;;
73266;SDS011;61495;53.400;7.608;2024-02-16T13:09:53;12.38;;;6.50;;
73266;SDS011;61495;53.400;7.608;2024-02-16T13:13:17;14.30;;;7.07;;
73266;SDS011;61495;53.400;7.608;2024-02-16T13:16:41;12.50;;;6.82;;
73266;SDS011;61495;53.400;7.608;2024-02-16T13:20:05;10.48;;;6.93;;
73266;SDS011;61495;53.400;7.608;2024-02-16T13:23:29;11.65;;;6.78;;
73266;SDS011;61495;53.400;7.608;2024-02-16T13:26:53;12.48;;;7.03;;
73266;SDS011;61495;53.400;7.608;2024-02-16T13:30:17;10.45;;;6.45;;
73266;SDS011;61495;53.400;7.608;2024-02-16T13:33:41;10.88;;;6.97;;
73266;SDS011;61495;53.400;7.608;2024-02-16T13:37:05;10.18;;;6.93;;
73266;SDS011;61495;53.400;7.608;2024-02-16T13:40:34;11.77;;;6.10;;
73266;SDS011;61495;53.400;7.608;2024-02-16T13:43:58;9.90;;;4.70;;
73266;SDS011;61495;53.400;7.608;2024-02-16T13:47:23;9.73;;;6.47;;
73266;SDS011;61495;53.400;7.608;2024-02-16T13:50:47;10.05;;;5.07;;
73266;SDS011;61495;53.400;7.608;2024-02-16T13:54:11;10.60;;;5.50;;
73266;SDS011;61495;53.400;7.608;2024-02-16T13:57:35;8.88;;;4.93;;
73266;SDS011;61495;53.400;7.608;2024-02-16T14:00:59;9.00;;;4.88;;
73266;SDS011;61495;53.400;7.608;2024-02-16T14:04:25;6.15;;;3.88;;
73266;SDS011;61495;53.400;7.608;2024-02-16T14:07:50;6.03;;;3.63;;
73266;SDS011;61495;53.400;7.608;2024-02-16T14:11:20;5.88;;;3.78;;
73266;SDS011;61495;53.400;7.608;2024-02-16T14:14:45;5.35;;;2.80;;
73266;SDS011;61495;53.400;7.608;2024-02-16T14:18:09;5.20;;;2.47;;
73266;SDS011;61495;53.400;7.608;2024-02-16T14:21:33;6.93;;;2.92;;
73266;SDS011;61495;53.400;7.608;2024-02-16T14:24:57;5.93;;;3.00;;
73266;SDS011;61495;53.400;7.608;2024-02-16T14:28:21;5.13;;;2.10;;
73266;SDS011;61495;53.400;7.608;2024-02-16T14:31:45;5.43;;;2.60;;
73266;SDS011;61495;53.400;7.608;2024-02-16T14:35:08;4.60;;;2.00;;
73266;SDS011;61495;53.400;7.608;2024-02-16T14:38:34;3.78;;;1.75;;
73266;SDS011;61495;53.400;7.608;2024-02-16T14:42:04;5.90;;;2.30;;
73266;SDS011;61495;53.400;7.608;2024-02-16T14:45:28;3.92;;;1.65;;
73266;SDS011;61495;53.400;7.608;2024-02-16T14:48:52;3.42;;;1.35;;
73266;SDS011;61495;53.400;7.608;2024-02-16T14:52:16;2.72;;;1.10;;
73266;SDS011;61495;53.400;7.608;2024-02-16T14:55:42;3.28;;;1.60;;
73266;SDS011;61495;53.400;7.608;2024-02-16T14:59:06;2.67;;;1.25;;
73266;SDS011;61495;53.400;7.608;2024-02-16T15:02:30;2.90;;;1.25;;
73266;SDS011;61495;53.400;7.608;2024-02-16T15:05:55;2.95;;;1.33;;
73266;SDS011;61495;53.400;7.608;2024-02-16T15:09:25;2.63;;;1.50;;
73266;SDS011;61495;53.400;7.608;2024-02-16T15:12:49;3.15;;;1.38;;
73266;SDS011;61495;53.400;7.608;2024-02-16T15:16:14;2.72;;;1.50;;
73266;SDS011;61495;53.400;7.608;2024-02-16T15:19:38;3.28;;;1.77;;
73266;SDS011;61495;53.400;7.608;2024-02-16T15:23:02;3.33;;;1.58;;
73266;SDS011;61495;53.400;7.608;2024-02-16T15:26:26;3.85;;;1.75;;
73266;SDS011;61495;53.400;7.608;2024-02-16T15:29:50;4.53;;;2.00;;
73266;SDS011;61495;53.400;7.608;2024-02-16T15:33:14;6.55;;;2.13;;
73266;SDS011;61495;53.400;7.608;2024-02-16T15:36:38;4.57;;;1.55;;
73266;SDS011;61495;53.400;7.608;2024-02-16T15:40:03;3.45;;;2.15;;
73266;SDS011;61495;53.400;7.608;2024-02-16T15:43:27;4.18;;;2.13;;
73266;SDS011;61495;53.400;7.608;2024-02-16T15:46:51;3.95;;;2.00;;
73266;SDS011;61495;53.400;7.608;2024-02-16T15:50:15;3.53;;;1.80;;
73266;SDS011;61495;53.400;7.608;2024-02-16T15:53:39;3.50;;;2.20;;
73266;SDS011;61495;53.400;7.608;2024-02-16T15:57:03;4.45;;;2.75;;
73266;SDS011;61495;53.400;7.608;2024-02-16T16:00:27;4.72;;;2.50;;
73266;SDS011;61495;53.400;7.608;2024-02-16T16:03:52;4.70;;;2.67;;
73266;SDS011;61495;53.400;7.608;2024-02-16T16:07:16;4.38;;;2.90;;
73266;SDS011;61495;53.400;7.608;2024-02-16T16:10:51;5.90;;;2.70;;
73266;SDS011;61495;53.400;7.608;2024-02-16T16:14:15;5.65;;;3.20;;
73266;SDS011;61495;53.400;7.608;2024-02-16T16:17:39;5.68;;;3.15;;
73266;SDS011;61495;53.400;7.608;2024-02-16T16:21:04;6.60;;;3.00;;
73266;SDS011;61495;53.400;7.608;2024-02-16T16:24:29;4.95;;;2.92;;
73266;SDS011;61495;53.400;7.608;2024-02-16T16:27:54;5.97;;;3.30;;
73266;SDS011;61495;53.400;7.608;2024-02-16T16:31:18;5.50;;;2.65;;
73266;SDS011;61495;53.400;7.608;2024-02-16T16:34:42;4.47;;;2.38;;
73266;SDS011;61495;53.400;7.608;2024-02-16T16:38:07;6.53;;;2.92;;
73266;SDS011;61495;53.400;7.608;2024-02-16T16:41:36;4.70;;;2.42;;
73266;SDS011;61495;53.400;7.608;2024-02-16T16:45:00;6.13;;;3.50;;
73266;SDS011;61495;53.400;7.608;2024-02-16T16:48:26;6.22;;;2.40;;
73266;SDS011;61495;53.400;7.608;2024-02-16T16:51:51;6.18;;;2.95;;
73266;SDS011;61495;53.400;7.608;2024-02-16T16:55:15;7.35;;;3.20;;
73266;SDS011;61495;53.400;7.608;2024-02-16T16:58:41;6.32;;;3.17;;
73266;SDS011;61495;53.400;7.608;2024-02-16T17:02:05;6.30;;;2.97;;
73266;SDS011;61495;53.400;7.608;2024-02-16T17:05:29;6.07;;;2.83;;
73266;SDS011;61495;53.400;7.608;2024-02-16T17:08:53;6.65;;;2.92;;
73266;SDS011;61495;53.400;7.608;2024-02-16T17:12:22;7.05;;;3.90;;
73266;SDS011;61495;53.400;7.608;2024-02-16T17:15:47;6.68;;;3.78;;
73266;SDS011;61495;53.400;7.608;2024-02-16T17:19:12;7.40;;;4.15;;
73266;SDS011;61495;53.400;7.608;2024-02-16T17:22:36;6.65;;;3.70;;
73266;SDS011;61495;53.400;7.608;2024-02-16T17:26:00;5.60;;;3.05;;
73266;SDS011;61495;53.400;7.608;2024-02-16T17:29:24;6.63;;;3.00;;
73266;SDS011;61495;53.400;7.608;2024-02-16T17:32:48;8.98;;;3.50;;
73266;SDS011;61495;53.400;7.608;2024-02-16T17:36:12;6.85;;;3.25;;
73266;SDS011;61495;53.400;7.608;2024-02-16T17:39:39;7.85;;;3.42;;
73266;SDS011;61495;53.400;7.608;2024-02-16T17:43:03;6.03;;;2.50;;
73266;SDS011;61495;53.400;7.608;2024-02-16T17:46:28;5.78;;;3.00;;
73266;SDS011;61495;53.400;7.608;2024-02-16T17:49:52;7.15;;;3.38;;
73266;SDS011;61495;53.400;7.608;2024-02-16T17:53:16;5.70;;;2.97;;
73266;SDS011;61495;53.400;7.608;2024-02-16T17:56:40;5.80;;;3.35;;
73266;SDS011;61495;53.400;7.608;2024-02-16T18:00:04;7.15;;;3.60;;
73266;SDS011;61495;53.400;7.608;2024-02-16T18:03:29;7.18;;;3.70;;
73266;SDS011;61495;53.400;7.608;2024-02-16T18:06:56;7.65;;;4.30;;
73266;SDS011;61495;53.400;7.608;2024-02-16T18:10:20;8.95;;;4.07;;
73266;SDS011;61495;53.400;7.608;2024-02-16T18:13:45;8.25;;;3.83;;
73266;SDS011;61495;53.400;7.608;2024-02-16T18:17:10;8.27;;;3.60;;
73266;SDS011;61495;53.400;7.608;2024-02-16T18:20:34;6.85;;;3.88;;
73266;SDS011;61495;53.400;7.608;2024-02-16T18:23:58;7.25;;;4.35;;
73266;SDS011;61495;53.400;7.608;2024-02-16T18:27:22;9.02;;;4.20;;
73266;SDS011;61495;53.400;7.608;2024-02-16T18:30:46;7.28;;;3.60;;
73266;SDS011;61495;53.400;7.608;2024-02-16T18:34:10;7.68;;;3.42;;
73266;SDS011;61495;53.400;7.608;2024-02-16T18:37:34;6.38;;;3.53;;
73266;SDS011;61495;53.400;7.608;2024-02-16T18:41:00;9.02;;;4.40;;
73266;SDS011;61495;53.400;7.608;2024-02-16T18:44:24;9.07;;;3.95;;
73266;SDS011;61495;53.400;7.608;2024-02-16T18:47:50;10.13;;;4.45;;
73266;SDS011;61495;53.400;7.608;2024-02-16T18:51:14;9.73;;;5.05;;
73266;SDS011;61495;53.400;7.608;2024-02-16T18:54:40;10.85;;;4.00;;
73266;SDS011;61495;53.400;7.608;2024-02-16T18:58:09;10.20;;;4.90;;
73266;SDS011;61495;53.400;7.608;2024-02-16T19:01:34;11.95;;;4.68;;
73266;SDS011;61495;53.400;7.608;2024-02-16T19:04:58;10.90;;;5.10;;
73266;SDS011;61495;53.400;7.608;2024-02-16T19:08:22;12.25;;;5.75;;
73266;SDS011;61495;53.400;7.608;2024-02-16T19:11:51;11.20;;;5.93;;
73266;SDS011;61495;53.400;7.608;2024-02-16T19:15:15;12.50;;;5.70;;
73266;SDS011;61495;53.400;7.608;2024-02-16T19:18:41;11.48;;;6.38;;
73266;SDS011;61495;53.400;7.608;2024-02-16T19:25:29;11.50;;;4.70;;
73266;SDS011;61495;53.400;7.608;2024-02-16T19:28:56;14.48;;;7.05;;
73266;SDS011;61495;53.400;7.608;2024-02-16T19:32:21;12.90;;;7.05;;
73266;SDS011;61495;53.400;7.608;2024-02-16T19:35:45;14.60;;;7.03;;
73266;SDS011;61495;53.400;7.608;2024-02-16T19:39:10;14.23;;;7.03;;
73266;SDS011;61495;53.400;7.608;2024-02-16T19:42:35;14.05;;;7.72;;
73266;SDS011;61495;53.400;7.608;2024-02-16T19:45:59;18.60;;;8.02;;
73266;SDS011;61495;53.400;7.608;2024-02-16T19:49:23;16.55;;;8.38;;
73266;SDS011;61495;53.400;7.608;2024-02-16T19:52:47;19.13;;;8.30;;
73266;SDS011;61495;53.400;7.608;2024-02-16T19:56:11;18.77;;;8.77;;
73266;SDS011;61495;53.400;7.608;2024-02-16T19:59:35;22.05;;;7.93;;
73266;SDS011;61495;53.400;7.608;2024-02-16T20:02:59;18.30;;;8.95;;
73266;SDS011;61495;53.400;7.608;2024-02-16T20:06:23;25.27;;;10.23;;
73266;SDS011;61495;53.400;7.608;2024-02-16T20:10:02;20.58;;;11.10;;
73266;SDS011;61495;53.400;7.608;2024-02-16T20:13:26;23.33;;;10.57;;
73266;SDS011;61495;53.400;7.608;2024-02-16T20:16:50;21.63;;;9.48;;
73266;SDS011;61495;53.400;7.608;2024-02-16T20:20:15;23.85;;;10.25;;
73266;SDS011;61495;53.400;7.608;2024-02-16T20:23:40;22.02;;;10.50;;
73266;SDS011;61495;53.400;7.608;2024-02-16T20:27:04;23.83;;;11.20;;
73266;SDS011;61495;53.400;7.608;2024-02-16T20:30:28;22.88;;;10.52;;
73266;SDS011;61495;53.400;7.608;2024-02-16T20:33:52;22.90;;;10.52;;
73266;SDS011;61495;53.400;7.608;2024-02-16T20:37:16;22.30;;;10.55;;
73266;SDS011;61495;53.400;7.608;2024-02-16T20:40:49;23.20;;;10.18;;
73266;SDS011;61495;53.400;7.608;2024-02-16T20:44:13;21.65;;;10.23;;
73266;SDS011;61495;53.400;7.608;2024-02-16T20:47:40;22.48;;;9.93;;
73266;SDS011;61495;53.400;7.608;2024-02-16T20:51:04;17.70;;;9.02;;
73266;SDS011;61495;53.400;7.608;2024-02-16T20:54:28;20.48;;;8.93;;
73266;SDS011;61495;53.400;7.608;2024-02-16T20:57:52;20.08;;;8.70;;
73266;SDS011;61495;53.400;7.608;2024-02-16T21:01:16;21.25;;;10.40;;
73266;SDS011;61495;53.400;7.608;2024-02-16T21:04:41;22.67;;;10.13;;
73266;SDS011;61495;53.400;7.608;2024-02-16T21:08:05;23.88;;;10.07;;
73266;SDS011;61495;53.400;7.608;2024-02-16T21:11:35;17.33;;;8.77;;